sensor_id;sensor_type;location;lat;lon;timestamp;P1;durP1;ratioP1;P2;durP2;ratioP2
67274;SDS011;55463;52.324;5.122;2023-02-28T00:00:29;4.55;;;2.35;;
67274;SDS011;55463;52.324;5.122;2023-02-28T00:02:56;6.40;;;2.05;;
67274;SDS011;55463;52.324;5.122;2023-02-28T00:05:22;4.35;;;2.10;;
67274;SDS011;55463;52.324;5.122;2023-02-28T00:07:49;7.60;;;1.83;;
67274;SDS011;55463;52.324;5.122;2023-02-28T00:10:17;6.28;;;1.95;;
67274;SDS011;55463;52.324;5.122;2023-02-28T00:12:48;9.23;;;3.63;;
67274;SDS011;55463;52.324;5.122;2023-02-28T00:15:14;8.18;;;2.25;;
67274;SDS011;55463;52.324;5.122;2023-02-28T00:17:40;5.10;;;2.30;;
67274;SDS011;55463;52.324;5.122;2023-02-28T00:20:06;2.00;;;1.80;;
67274;SDS011;55463;52.324;5.122;2023-02-28T00:22:40;5.75;;;1.65;;
67274;SDS011;55463;52.324;5.122;2023-02-28T00:25:08;7.22;;;2.17;;
67274;SDS011;55463;52.324;5.122;2023-02-28T00:27:35;5.00;;;2.10;;
67274;SDS011;55463;52.324;5.122;2023-02-28T00:30:02;5.80;;;2.08;;
67274;SDS011;55463;52.324;5.122;2023-02-28T00:32:28;3.10;;;1.98;;
67274;SDS011;55463;52.324;5.122;2023-02-28T00:34:54;4.43;;;2.00;;
67274;SDS011;55463;52.324;5.122;2023-02-28T00:37:20;3.30;;;1.80;;
67274;SDS011;55463;52.324;5.122;2023-02-28T00:39:45;4.63;;;1.80;;
67274;SDS011;55463;52.324;5.122;2023-02-28T00:42:11;3.78;;;1.90;;
67274;SDS011;55463;52.324;5.122;2023-02-28T00:44:36;4.47;;;2.08;;
67274;SDS011;55463;52.324;5.122;2023-02-28T00:47:01;5.38;;;2.45;;
67274;SDS011;55463;52.324;5.122;2023-02-28T00:49:27;5.20;;;2.17;;
67274;SDS011;55463;52.324;5.122;2023-02-28T00:51:53;4.38;;;2.10;;
67274;SDS011;55463;52.324;5.122;2023-02-28T00:54:19;6.57;;;2.00;;
67274;SDS011;55463;52.324;5.122;2023-02-28T00:56:45;5.35;;;2.10;;
67274;SDS011;55463;52.324;5.122;2023-02-28T00:59:14;9.10;;;2.15;;
67274;SDS011;55463;52.324;5.122;2023-02-28T01:01:40;4.22;;;2.10;;
67274;SDS011;55463;52.324;5.122;2023-02-28T01:04:06;6.78;;;2.13;;
67274;SDS011;55463;52.324;5.122;2023-02-28T01:06:32;5.30;;;1.70;;
67274;SDS011;55463;52.324;5.122;2023-02-28T01:08:57;4.05;;;2.00;;
67274;SDS011;55463;52.324;5.122;2023-02-28T01:11:24;6.45;;;2.47;;
67274;SDS011;55463;52.324;5.122;2023-02-28T01:13:49;7.82;;;2.10;;
67274;SDS011;55463;52.324;5.122;2023-02-28T01:16:15;8.80;;;2.72;;
67274;SDS011;55463;52.324;5.122;2023-02-28T01:18:41;7.13;;;2.47;;
67274;SDS011;55463;52.324;5.122;2023-02-28T01:21:07;5.75;;;2.60;;
67274;SDS011;55463;52.324;5.122;2023-02-28T01:23:34;12.40;;;4.63;;
67274;SDS011;55463;52.324;5.122;2023-02-28T01:26:06;10.65;;;4.45;;
67274;SDS011;55463;52.324;5.122;2023-02-28T01:28:34;9.23;;;2.92;;
67274;SDS011;55463;52.324;5.122;2023-02-28T01:30:59;9.15;;;2.83;;
67274;SDS011;55463;52.324;5.122;2023-02-28T01:33:24;31.77;;;10.82;;
67274;SDS011;55463;52.324;5.122;2023-02-28T01:35:57;20.30;;;9.85;;
67274;SDS011;55463;52.324;5.122;2023-02-28T01:38:34;11.48;;;5.68;;
67274;SDS011;55463;52.324;5.122;2023-02-28T01:40:59;23.15;;;11.07;;
67274;SDS011;55463;52.324;5.122;2023-02-28T01:45:53;6.20;;;3.75;;
67274;SDS011;55463;52.324;5.122;2023-02-28T02:02:42;6.65;;;2.60;;
67274;SDS011;55463;52.324;5.122;2023-02-28T02:05:12;12.98;;;2.90;;
67274;SDS011;55463;52.324;5.122;2023-02-28T02:07:41;5.57;;;2.63;;
67274;SDS011;55463;52.324;5.122;2023-02-28T02:10:19;5.43;;;2.55;;
67274;SDS011;55463;52.324;5.122;2023-02-28T02:18:47;8.80;;;3.22;;
67274;SDS011;55463;52.324;5.122;2023-02-28T02:24:06;9.57;;;3.20;;
67274;SDS011;55463;52.324;5.122;2023-02-28T02:26:58;12.52;;;2.65;;
67274;SDS011;55463;52.324;5.122;2023-02-28T02:43:38;8.30;;;3.00;;
67274;SDS011;55463;52.324;5.122;2023-02-28T02:46:17;7.40;;;2.47;;
67274;SDS011;55463;52.324;5.122;2023-02-28T02:48:48;16.25;;;3.17;;
67274;SDS011;55463;52.324;5.122;2023-02-28T02:51:17;6.03;;;2.50;;
67274;SDS011;55463;52.324;5.122;2023-02-28T02:53:54;5.82;;;2.85;;
67274;SDS011;55463;52.324;5.122;2023-02-28T02:56:23;8.02;;;2.88;;
67274;SDS011;55463;52.324;5.122;2023-02-28T02:58:52;8.77;;;2.92;;
67274;SDS011;55463;52.324;5.122;2023-02-28T03:01:22;7.47;;;2.95;;
67274;SDS011;55463;52.324;5.122;2023-02-28T03:03:57;5.55;;;2.72;;
67274;SDS011;55463;52.324;5.122;2023-02-28T03:06:25;9.20;;;3.00;;
67274;SDS011;55463;52.324;5.122;2023-02-28T03:08:51;8.35;;;2.85;;
67274;SDS011;55463;52.324;5.122;2023-02-28T03:11:17;4.50;;;2.60;;
67274;SDS011;55463;52.324;5.122;2023-02-28T03:13:49;5.43;;;2.75;;
67274;SDS011;55463;52.324;5.122;2023-02-28T03:24:55;3.72;;;2.50;;
67274;SDS011;55463;52.324;5.122;2023-02-28T03:27:44;7.63;;;2.45;;
67274;SDS011;55463;52.324;5.122;2023-02-28T03:30:35;3.92;;;2.40;;
67274;SDS011;55463;52.324;5.122;2023-02-28T03:33:13;4.88;;;2.90;;
67274;SDS011;55463;52.324;5.122;2023-02-28T03:35:43;6.28;;;2.90;;
67274;SDS011;55463;52.324;5.122;2023-02-28T03:40:43;4.60;;;2.70;;
67274;SDS011;55463;52.324;5.122;2023-02-28T03:45:39;7.25;;;3.55;;
67274;SDS011;55463;52.324;5.122;2023-02-28T03:48:22;7.50;;;3.20;;
67274;SDS011;55463;52.324;5.122;2023-02-28T03:50:53;5.28;;;3.22;;
67274;SDS011;55463;52.324;5.122;2023-02-28T03:53:31;7.78;;;3.25;;
67274;SDS011;55463;52.324;5.122;2023-02-28T03:56:17;5.30;;;3.00;;
67274;SDS011;55463;52.324;5.122;2023-02-28T03:58:53;5.50;;;2.80;;
67274;SDS011;55463;52.324;5.122;2023-02-28T04:01:40;3.03;;;2.65;;
67274;SDS011;55463;52.324;5.122;2023-02-28T04:04:09;5.32;;;2.90;;
67274;SDS011;55463;52.324;5.122;2023-02-28T04:06:35;5.03;;;2.75;;
67274;SDS011;55463;52.324;5.122;2023-02-28T04:09:02;8.38;;;2.78;;
67274;SDS011;55463;52.324;5.122;2023-02-28T04:11:45;7.80;;;3.13;;
67274;SDS011;55463;52.324;5.122;2023-02-28T04:14:13;7.15;;;3.10;;
67274;SDS011;55463;52.324;5.122;2023-02-28T04:16:40;5.32;;;2.70;;
67274;SDS011;55463;52.324;5.122;2023-02-28T04:19:07;6.25;;;2.75;;
67274;SDS011;55463;52.324;5.122;2023-02-28T04:21:37;6.05;;;3.30;;
67274;SDS011;55463;52.324;5.122;2023-02-28T04:24:04;4.85;;;3.17;;
67274;SDS011;55463;52.324;5.122;2023-02-28T04:26:35;6.28;;;3.50;;
67274;SDS011;55463;52.324;5.122;2023-02-28T04:29:02;8.80;;;4.40;;
67274;SDS011;55463;52.324;5.122;2023-02-28T04:31:29;8.30;;;4.05;;
67274;SDS011;55463;52.324;5.122;2023-02-28T04:33:55;6.00;;;3.72;;
67274;SDS011;55463;52.324;5.122;2023-02-28T04:36:20;12.32;;;4.28;;
67274;SDS011;55463;52.324;5.122;2023-02-28T04:38:47;8.65;;;3.70;;
67274;SDS011;55463;52.324;5.122;2023-02-28T04:41:13;9.13;;;4.00;;
67274;SDS011;55463;52.324;5.122;2023-02-28T04:43:38;9.88;;;4.30;;
67274;SDS011;55463;52.324;5.122;2023-02-28T04:46:04;9.88;;;4.88;;
67274;SDS011;55463;52.324;5.122;2023-02-28T04:48:31;7.07;;;3.97;;
67274;SDS011;55463;52.324;5.122;2023-02-28T04:51:02;9.00;;;4.82;;
67274;SDS011;55463;52.324;5.122;2023-02-28T04:53:29;10.40;;;4.72;;
67274;SDS011;55463;52.324;5.122;2023-02-28T04:55:54;13.55;;;5.55;;
67274;SDS011;55463;52.324;5.122;2023-02-28T04:58:20;8.35;;;5.35;;
67274;SDS011;55463;52.324;5.122;2023-02-28T05:00:48;14.07;;;5.90;;
67274;SDS011;55463;52.324;5.122;2023-02-28T05:03:13;15.85;;;7.03;;
67274;SDS011;55463;52.324;5.122;2023-02-28T05:05:39;12.15;;;6.03;;
67274;SDS011;55463;52.324;5.122;2023-02-28T05:08:04;9.05;;;6.32;;
67274;SDS011;55463;52.324;5.122;2023-02-28T05:10:30;10.18;;;6.28;;
67274;SDS011;55463;52.324;5.122;2023-02-28T05:12:56;13.98;;;7.50;;
67274;SDS011;55463;52.324;5.122;2023-02-28T05:15:21;20.38;;;7.80;;
67274;SDS011;55463;52.324;5.122;2023-02-28T05:17:46;12.95;;;7.38;;
67274;SDS011;55463;52.324;5.122;2023-02-28T05:20:12;11.57;;;7.13;;
67274;SDS011;55463;52.324;5.122;2023-02-28T05:22:38;15.32;;;7.90;;
67274;SDS011;55463;52.324;5.122;2023-02-28T05:25:04;16.48;;;7.10;;
67274;SDS011;55463;52.324;5.122;2023-02-28T05:27:31;16.10;;;8.50;;
67274;SDS011;55463;52.324;5.122;2023-02-28T05:29:56;17.55;;;8.63;;
67274;SDS011;55463;52.324;5.122;2023-02-28T05:32:22;19.42;;;9.05;;
67274;SDS011;55463;52.324;5.122;2023-02-28T05:34:47;17.75;;;9.05;;
67274;SDS011;55463;52.324;5.122;2023-02-28T05:37:13;17.05;;;10.20;;
67274;SDS011;55463;52.324;5.122;2023-02-28T05:39:40;18.83;;;10.38;;
67274;SDS011;55463;52.324;5.122;2023-02-28T05:42:06;19.95;;;10.50;;
67274;SDS011;55463;52.324;5.122;2023-02-28T05:44:32;21.73;;;10.25;;
67274;SDS011;55463;52.324;5.122;2023-02-28T05:46:58;20.58;;;11.80;;
67274;SDS011;55463;52.324;5.122;2023-02-28T05:49:23;20.65;;;11.45;;
67274;SDS011;55463;52.324;5.122;2023-02-28T05:51:49;30.55;;;11.90;;
67274;SDS011;55463;52.324;5.122;2023-02-28T05:54:15;26.70;;;11.25;;
67274;SDS011;55463;52.324;5.122;2023-02-28T05:56:40;21.50;;;11.73;;
67274;SDS011;55463;52.324;5.122;2023-02-28T05:59:08;23.52;;;12.13;;
67274;SDS011;55463;52.324;5.122;2023-02-28T06:01:39;20.35;;;12.60;;
67274;SDS011;55463;52.324;5.122;2023-02-28T06:04:07;24.48;;;11.80;;
67274;SDS011;55463;52.324;5.122;2023-02-28T06:06:35;23.40;;;11.48;;
67274;SDS011;55463;52.324;5.122;2023-02-28T06:09:01;28.45;;;11.55;;
67274;SDS011;55463;52.324;5.122;2023-02-28T06:11:28;18.95;;;11.15;;
67274;SDS011;55463;52.324;5.122;2023-02-28T06:13:54;17.25;;;8.98;;
67274;SDS011;55463;52.324;5.122;2023-02-28T06:16:21;12.75;;;7.25;;
67274;SDS011;55463;52.324;5.122;2023-02-28T06:18:47;10.55;;;5.65;;
67274;SDS011;55463;52.324;5.122;2023-02-28T06:21:12;10.20;;;4.95;;
67274;SDS011;55463;52.324;5.122;2023-02-28T06:23:38;10.48;;;5.38;;
67274;SDS011;55463;52.324;5.122;2023-02-28T06:26:04;11.43;;;5.10;;
67274;SDS011;55463;52.324;5.122;2023-02-28T06:28:30;12.20;;;5.35;;
67274;SDS011;55463;52.324;5.122;2023-02-28T06:30:56;9.73;;;5.30;;
67274;SDS011;55463;52.324;5.122;2023-02-28T06:33:21;7.00;;;5.00;;
67274;SDS011;55463;52.324;5.122;2023-02-28T06:35:47;9.32;;;5.50;;
67274;SDS011;55463;52.324;5.122;2023-02-28T06:38:15;13.52;;;5.30;;
67274;SDS011;55463;52.324;5.122;2023-02-28T06:40:41;12.60;;;5.00;;
67274;SDS011;55463;52.324;5.122;2023-02-28T06:43:06;13.70;;;5.38;;
67274;SDS011;55463;52.324;5.122;2023-02-28T06:45:32;9.30;;;5.32;;
67274;SDS011;55463;52.324;5.122;2023-02-28T06:47:57;10.45;;;5.15;;
67274;SDS011;55463;52.324;5.122;2023-02-28T06:50:23;6.85;;;5.18;;
67274;SDS011;55463;52.324;5.122;2023-02-28T06:52:48;7.07;;;5.13;;
67274;SDS011;55463;52.324;5.122;2023-02-28T06:55:18;8.75;;;5.93;;
67274;SDS011;55463;52.324;5.122;2023-02-28T06:57:44;9.40;;;5.25;;
67274;SDS011;55463;52.324;5.122;2023-02-28T07:00:09;10.77;;;5.72;;
67274;SDS011;55463;52.324;5.122;2023-02-28T07:02:36;10.32;;;5.78;;
67274;SDS011;55463;52.324;5.122;2023-02-28T07:05:02;11.68;;;6.03;;
67274;SDS011;55463;52.324;5.122;2023-02-28T07:07:28;12.55;;;6.22;;
67274;SDS011;55463;52.324;5.122;2023-02-28T07:09:54;14.85;;;6.85;;
67274;SDS011;55463;52.324;5.122;2023-02-28T07:12:19;12.27;;;6.63;;
67274;SDS011;55463;52.324;5.122;2023-02-28T07:14:44;11.77;;;6.03;;
67274;SDS011;55463;52.324;5.122;2023-02-28T07:17:10;14.93;;;6.82;;
67274;SDS011;55463;52.324;5.122;2023-02-28T07:19:37;16.58;;;7.53;;
67274;SDS011;55463;52.324;5.122;2023-02-28T07:22:03;15.48;;;6.95;;
67274;SDS011;55463;52.324;5.122;2023-02-28T07:24:29;11.55;;;6.88;;
67274;SDS011;55463;52.324;5.122;2023-02-28T07:26:55;19.65;;;7.70;;
67274;SDS011;55463;52.324;5.122;2023-02-28T07:29:21;14.13;;;7.40;;
67274;SDS011;55463;52.324;5.122;2023-02-28T07:31:46;18.27;;;7.80;;
67274;SDS011;55463;52.324;5.122;2023-02-28T07:34:12;19.13;;;8.02;;
67274;SDS011;55463;52.324;5.122;2023-02-28T07:36:39;16.70;;;8.02;;
67274;SDS011;55463;52.324;5.122;2023-02-28T07:39:04;24.75;;;9.00;;
67274;SDS011;55463;52.324;5.122;2023-02-28T07:41:30;18.38;;;9.30;;
67274;SDS011;55463;52.324;5.122;2023-02-28T07:43:58;17.75;;;8.88;;
67274;SDS011;55463;52.324;5.122;2023-02-28T07:46:24;22.05;;;8.73;;
67274;SDS011;55463;52.324;5.122;2023-02-28T07:48:51;15.35;;;8.45;;
67274;SDS011;55463;52.324;5.122;2023-02-28T07:51:17;18.52;;;8.80;;
67274;SDS011;55463;52.324;5.122;2023-02-28T07:53:43;18.98;;;9.35;;
67274;SDS011;55463;52.324;5.122;2023-02-28T07:56:09;17.80;;;8.48;;
67274;SDS011;55463;52.324;5.122;2023-02-28T07:58:35;19.48;;;9.25;;
67274;SDS011;55463;52.324;5.122;2023-02-28T08:01:08;16.60;;;9.25;;
67274;SDS011;55463;52.324;5.122;2023-02-28T08:03:34;15.25;;;8.50;;
67274;SDS011;55463;52.324;5.122;2023-02-28T08:06:01;14.50;;;8.32;;
67274;SDS011;55463;52.324;5.122;2023-02-28T08:08:28;16.40;;;8.38;;
67274;SDS011;55463;52.324;5.122;2023-02-28T08:10:57;20.77;;;8.32;;
67274;SDS011;55463;52.324;5.122;2023-02-28T08:13:25;14.93;;;8.60;;
67274;SDS011;55463;52.324;5.122;2023-02-28T08:15:52;14.18;;;8.02;;
67274;SDS011;55463;52.324;5.122;2023-02-28T08:18:17;18.90;;;9.13;;
67274;SDS011;55463;52.324;5.122;2023-02-28T08:20:43;17.85;;;8.50;;
67274;SDS011;55463;52.324;5.122;2023-02-28T08:23:08;17.67;;;8.35;;
67274;SDS011;55463;52.324;5.122;2023-02-28T08:25:33;16.35;;;7.28;;
67274;SDS011;55463;52.324;5.122;2023-02-28T08:27:59;17.38;;;7.80;;
67274;SDS011;55463;52.324;5.122;2023-02-28T08:30:24;15.75;;;8.05;;
67274;SDS011;55463;52.324;5.122;2023-02-28T08:32:49;14.00;;;7.53;;
67274;SDS011;55463;52.324;5.122;2023-02-28T08:35:15;13.90;;;7.45;;
67274;SDS011;55463;52.324;5.122;2023-02-28T08:37:40;14.02;;;7.85;;
67274;SDS011;55463;52.324;5.122;2023-02-28T08:40:06;17.92;;;7.53;;
67274;SDS011;55463;52.324;5.122;2023-02-28T08:42:32;12.90;;;7.07;;
67274;SDS011;55463;52.324;5.122;2023-02-28T08:44:57;20.23;;;7.63;;
67274;SDS011;55463;52.324;5.122;2023-02-28T08:47:23;11.15;;;7.13;;
67274;SDS011;55463;52.324;5.122;2023-02-28T08:49:48;13.80;;;7.00;;
67274;SDS011;55463;52.324;5.122;2023-02-28T08:52:14;13.65;;;6.78;;
67274;SDS011;55463;52.324;5.122;2023-02-28T08:54:39;13.35;;;7.43;;
67274;SDS011;55463;52.324;5.122;2023-02-28T08:57:04;39.17;;;9.00;;
67274;SDS011;55463;52.324;5.122;2023-02-28T08:59:30;12.32;;;8.25;;
67274;SDS011;55463;52.324;5.122;2023-02-28T09:01:55;12.65;;;8.18;;
67274;SDS011;55463;52.324;5.122;2023-02-28T09:04:23;11.75;;;6.65;;
67274;SDS011;55463;52.324;5.122;2023-02-28T09:06:49;15.55;;;8.27;;
67274;SDS011;55463;52.324;5.122;2023-02-28T09:09:15;14.55;;;7.32;;
67274;SDS011;55463;52.324;5.122;2023-02-28T09:11:40;14.45;;;7.47;;
67274;SDS011;55463;52.324;5.122;2023-02-28T09:14:06;12.15;;;7.00;;
67274;SDS011;55463;52.324;5.122;2023-02-28T09:16:32;10.05;;;7.05;;
67274;SDS011;55463;52.324;5.122;2023-02-28T09:18:58;20.30;;;10.32;;
67274;SDS011;55463;52.324;5.122;2023-02-28T09:21:24;24.00;;;10.88;;
67274;SDS011;55463;52.324;5.122;2023-02-28T09:23:49;12.93;;;7.03;;
67274;SDS011;55463;52.324;5.122;2023-02-28T09:28:51;12.38;;;7.88;;
67274;SDS011;55463;52.324;5.122;2023-02-28T09:31:20;9.80;;;5.68;;
67274;SDS011;55463;52.324;5.122;2023-02-28T09:33:48;8.05;;;5.10;;
67274;SDS011;55463;52.324;5.122;2023-02-28T09:36:14;6.28;;;4.60;;
67274;SDS011;55463;52.324;5.122;2023-02-28T09:38:40;7.93;;;5.30;;
67274;SDS011;55463;52.324;5.122;2023-02-28T09:41:15;7.82;;;4.88;;
67274;SDS011;55463;52.324;5.122;2023-02-28T09:43:43;8.95;;;4.72;;
67274;SDS011;55463;52.324;5.122;2023-02-28T09:46:33;7.13;;;4.90;;
67274;SDS011;55463;52.324;5.122;2023-02-28T09:49:13;7.68;;;4.55;;
67274;SDS011;55463;52.324;5.122;2023-02-28T09:54:13;9.38;;;3.92;;
67274;SDS011;55463;52.324;5.122;2023-02-28T09:56:45;9.68;;;4.28;;
67274;SDS011;55463;52.324;5.122;2023-02-28T09:59:37;5.65;;;4.15;;
67274;SDS011;55463;52.324;5.122;2023-02-28T10:04:58;5.05;;;3.60;;
67274;SDS011;55463;52.324;5.122;2023-02-28T10:10:18;5.40;;;3.40;;
67274;SDS011;55463;52.324;5.122;2023-02-28T10:12:46;8.35;;;4.15;;
67274;SDS011;55463;52.324;5.122;2023-02-28T10:15:15;5.68;;;3.58;;
67274;SDS011;55463;52.324;5.122;2023-02-28T10:17:43;4.38;;;3.30;;
67274;SDS011;55463;52.324;5.122;2023-02-28T10:20:13;10.35;;;3.63;;
67274;SDS011;55463;52.324;5.122;2023-02-28T10:25:36;4.05;;;3.45;;
67274;SDS011;55463;52.324;5.122;2023-02-28T10:30:39;7.18;;;3.65;;
67274;SDS011;55463;52.324;5.122;2023-02-28T10:33:11;5.55;;;3.20;;
67274;SDS011;55463;52.324;5.122;2023-02-28T10:35:44;6.30;;;3.25;;
67274;SDS011;55463;52.324;5.122;2023-02-28T10:38:14;4.05;;;3.30;;
67274;SDS011;55463;52.324;5.122;2023-02-28T10:40:42;5.43;;;3.17;;
67274;SDS011;55463;52.324;5.122;2023-02-28T10:43:28;3.83;;;3.08;;
67274;SDS011;55463;52.324;5.122;2023-02-28T10:45:56;6.72;;;3.05;;
67274;SDS011;55463;52.324;5.122;2023-02-28T10:48:29;3.97;;;2.50;;
67274;SDS011;55463;52.324;5.122;2023-02-28T10:50:58;5.63;;;2.88;;
67274;SDS011;55463;52.324;5.122;2023-02-28T10:58:40;4.55;;;2.90;;
67274;SDS011;55463;52.324;5.122;2023-02-28T11:01:21;4.75;;;2.78;;
67274;SDS011;55463;52.324;5.122;2023-02-28T11:03:49;4.60;;;3.33;;
67274;SDS011;55463;52.324;5.122;2023-02-28T11:08:49;4.35;;;2.47;;
67274;SDS011;55463;52.324;5.122;2023-02-28T11:11:20;3.88;;;2.75;;
67274;SDS011;55463;52.324;5.122;2023-02-28T11:13:48;6.07;;;3.22;;
67274;SDS011;55463;52.324;5.122;2023-02-28T11:16:17;3.08;;;2.80;;
67274;SDS011;55463;52.324;5.122;2023-02-28T11:18:47;7.03;;;3.15;;
67274;SDS011;55463;52.324;5.122;2023-02-28T11:21:20;5.72;;;3.50;;
67274;SDS011;55463;52.324;5.122;2023-02-28T11:23:49;6.05;;;2.88;;
67274;SDS011;55463;52.324;5.122;2023-02-28T11:26:16;5.88;;;2.92;;
67274;SDS011;55463;52.324;5.122;2023-02-28T11:29:08;4.82;;;3.35;;
67274;SDS011;55463;52.324;5.122;2023-02-28T11:34:38;5.85;;;2.95;;
67274;SDS011;55463;52.324;5.122;2023-02-28T11:37:08;4.60;;;3.03;;
67274;SDS011;55463;52.324;5.122;2023-02-28T11:39:38;5.38;;;3.00;;
67274;SDS011;55463;52.324;5.122;2023-02-28T11:50:32;3.25;;;2.53;;
67274;SDS011;55463;52.324;5.122;2023-02-28T11:56:13;2.53;;;2.33;;
67274;SDS011;55463;52.324;5.122;2023-02-28T12:07:13;2.30;;;2.10;;
67274;SDS011;55463;52.324;5.122;2023-02-28T12:12:52;2.92;;;1.92;;
67274;SDS011;55463;52.324;5.122;2023-02-28T12:18:42;5.38;;;2.25;;
67274;SDS011;55463;52.324;5.122;2023-02-28T12:21:35;2.53;;;1.98;;
67274;SDS011;55463;52.324;5.122;2023-02-28T12:27:02;2.90;;;2.17;;
67274;SDS011;55463;52.324;5.122;2023-02-28T12:29:39;3.05;;;2.00;;
67274;SDS011;55463;52.324;5.122;2023-02-28T12:32:23;2.20;;;2.00;;
67274;SDS011;55463;52.324;5.122;2023-02-28T12:34:58;2.20;;;2.00;;
67274;SDS011;55463;52.324;5.122;2023-02-28T12:37:31;1.90;;;1.75;;
67274;SDS011;55463;52.324;5.122;2023-02-28T12:40:09;2.40;;;2.20;;
67274;SDS011;55463;52.324;5.122;2023-02-28T12:42:42;2.33;;;2.00;;
67274;SDS011;55463;52.324;5.122;2023-02-28T12:45:19;2.10;;;1.90;;
67274;SDS011;55463;52.324;5.122;2023-02-28T12:47:49;3.25;;;2.20;;
67274;SDS011;55463;52.324;5.122;2023-02-28T12:50:17;5.20;;;2.90;;
67274;SDS011;55463;52.324;5.122;2023-02-28T12:53:03;2.60;;;2.40;;
67274;SDS011;55463;52.324;5.122;2023-02-28T12:55:49;2.47;;;2.28;;
67274;SDS011;55463;52.324;5.122;2023-02-28T13:06:22;3.97;;;2.70;;
67274;SDS011;55463;52.324;5.122;2023-02-28T13:09:10;8.40;;;2.97;;
67274;SDS011;55463;52.324;5.122;2023-02-28T13:11:49;2.92;;;2.60;;
67274;SDS011;55463;52.324;5.122;2023-02-28T13:14:22;3.28;;;2.60;;
67274;SDS011;55463;52.324;5.122;2023-02-28T13:17:01;3.92;;;3.03;;
67274;SDS011;55463;52.324;5.122;2023-02-28T13:19:34;3.13;;;2.83;;
67274;SDS011;55463;52.324;5.122;2023-02-28T13:22:02;3.28;;;2.72;;
67274;SDS011;55463;52.324;5.122;2023-02-28T13:29:32;3.05;;;2.60;;
67274;SDS011;55463;52.324;5.122;2023-02-28T13:34:36;4.20;;;3.10;;
67274;SDS011;55463;52.324;5.122;2023-02-28T13:40:27;2.97;;;2.70;;
67274;SDS011;55463;52.324;5.122;2023-02-28T13:43:01;4.28;;;3.17;;
67274;SDS011;55463;52.324;5.122;2023-02-28T13:45:28;4.30;;;3.50;;
67274;SDS011;55463;52.324;5.122;2023-02-28T14:06:22;5.47;;;2.88;;
67274;SDS011;55463;52.324;5.122;2023-02-28T14:11:25;4.35;;;3.20;;
67274;SDS011;55463;52.324;5.122;2023-02-28T14:14:10;2.75;;;2.50;;
67274;SDS011;55463;52.324;5.122;2023-02-28T14:17:04;3.40;;;2.70;;
67274;SDS011;55463;52.324;5.122;2023-02-28T14:19:39;2.72;;;2.53;;
67274;SDS011;55463;52.324;5.122;2023-02-28T14:31:49;3.25;;;2.55;;
67274;SDS011;55463;52.324;5.122;2023-02-28T14:36:57;5.22;;;2.85;;
67274;SDS011;55463;52.324;5.122;2023-02-28T14:39:25;3.20;;;2.92;;
67274;SDS011;55463;52.324;5.122;2023-02-28T14:41:52;6.53;;;3.28;;
67274;SDS011;55463;52.324;5.122;2023-02-28T14:44:22;3.80;;;2.72;;
67274;SDS011;55463;52.324;5.122;2023-02-28T14:46:49;5.00;;;2.65;;
67274;SDS011;55463;52.324;5.122;2023-02-28T14:49:34;3.00;;;2.70;;
67274;SDS011;55463;52.324;5.122;2023-02-28T14:54:54;2.40;;;2.20;;
67274;SDS011;55463;52.324;5.122;2023-02-28T14:57:21;2.63;;;2.42;;
67274;SDS011;55463;52.324;5.122;2023-02-28T15:00:06;5.05;;;2.35;;
67274;SDS011;55463;52.324;5.122;2023-02-28T15:02:36;3.63;;;2.30;;
67274;SDS011;55463;52.324;5.122;2023-02-28T15:05:16;2.97;;;2.53;;
67274;SDS011;55463;52.324;5.122;2023-02-28T15:07:47;3.85;;;2.60;;
67274;SDS011;55463;52.324;5.122;2023-02-28T15:10:25;2.47;;;2.28;;
67274;SDS011;55463;52.324;5.122;2023-02-28T15:12:55;4.15;;;2.92;;
67274;SDS011;55463;52.324;5.122;2023-02-28T15:15:24;2.50;;;2.30;;
67274;SDS011;55463;52.324;5.122;2023-02-28T15:18:00;3.80;;;2.80;;
67274;SDS011;55463;52.324;5.122;2023-02-28T15:20:29;2.38;;;2.10;;
67274;SDS011;55463;52.324;5.122;2023-02-28T15:22:56;2.83;;;2.40;;
67274;SDS011;55463;52.324;5.122;2023-02-28T15:25:22;4.20;;;2.50;;
67274;SDS011;55463;52.324;5.122;2023-02-28T15:27:49;2.80;;;2.53;;
67274;SDS011;55463;52.324;5.122;2023-02-28T15:30:25;4.15;;;2.83;;
67274;SDS011;55463;52.324;5.122;2023-02-28T15:35:36;2.78;;;2.58;;
67274;SDS011;55463;52.324;5.122;2023-02-28T15:38:21;4.80;;;2.97;;
67274;SDS011;55463;52.324;5.122;2023-02-28T15:40:55;3.20;;;2.92;;
67274;SDS011;55463;52.324;5.122;2023-02-28T15:45:50;6.25;;;2.97;;
67274;SDS011;55463;52.324;5.122;2023-02-28T15:48:22;3.05;;;2.70;;
67274;SDS011;55463;52.324;5.122;2023-02-28T15:51:36;5.15;;;3.00;;
67274;SDS011;55463;52.324;5.122;2023-02-28T15:53:45;3.67;;;2.63;;
67274;SDS011;55463;52.324;5.122;2023-02-28T15:56:28;2.92;;;2.35;;
67274;SDS011;55463;52.324;5.122;2023-02-28T15:59:18;2.72;;;2.35;;
67274;SDS011;55463;52.324;5.122;2023-02-28T16:04:29;2.38;;;2.22;;
67274;SDS011;55463;52.324;5.122;2023-02-28T16:09:25;3.70;;;2.75;;
67274;SDS011;55463;52.324;5.122;2023-02-28T16:11:52;2.80;;;2.60;;
67274;SDS011;55463;52.324;5.122;2023-02-28T16:14:21;3.97;;;2.90;;
67274;SDS011;55463;52.324;5.122;2023-02-28T16:16:50;2.90;;;2.70;;
67274;SDS011;55463;52.324;5.122;2023-02-28T16:19:19;2.60;;;2.40;;
67274;SDS011;55463;52.324;5.122;2023-02-28T16:21:45;4.40;;;2.30;;
67274;SDS011;55463;52.324;5.122;2023-02-28T16:24:14;2.88;;;2.38;;
67274;SDS011;55463;52.324;5.122;2023-02-28T16:26:42;3.22;;;2.40;;
67274;SDS011;55463;52.324;5.122;2023-02-28T16:29:31;2.40;;;2.20;;
67274;SDS011;55463;52.324;5.122;2023-02-28T16:32:00;4.03;;;2.65;;
67274;SDS011;55463;52.324;5.122;2023-02-28T16:34:26;3.70;;;2.42;;
67274;SDS011;55463;52.324;5.122;2023-02-28T16:36:52;3.15;;;2.75;;
67274;SDS011;55463;52.324;5.122;2023-02-28T16:39:17;3.95;;;2.78;;
67274;SDS011;55463;52.324;5.122;2023-02-28T16:41:45;4.72;;;3.30;;
67274;SDS011;55463;52.324;5.122;2023-02-28T16:44:17;3.40;;;2.67;;
67274;SDS011;55463;52.324;5.122;2023-02-28T16:46:46;3.10;;;2.80;;
67274;SDS011;55463;52.324;5.122;2023-02-28T16:49:12;6.43;;;2.80;;
67274;SDS011;55463;52.324;5.122;2023-02-28T16:51:40;4.38;;;3.55;;
67274;SDS011;55463;52.324;5.122;2023-02-28T16:54:05;4.03;;;2.78;;
67274;SDS011;55463;52.324;5.122;2023-02-28T16:56:31;5.32;;;3.22;;
67274;SDS011;55463;52.324;5.122;2023-02-28T16:58:58;6.20;;;3.63;;
67274;SDS011;55463;52.324;5.122;2023-02-28T17:01:25;6.10;;;4.30;;
67274;SDS011;55463;52.324;5.122;2023-02-28T17:03:52;7.30;;;3.53;;
67274;SDS011;55463;52.324;5.122;2023-02-28T17:06:25;5.05;;;3.42;;
67274;SDS011;55463;52.324;5.122;2023-02-28T17:08:55;4.45;;;3.78;;
67274;SDS011;55463;52.324;5.122;2023-02-28T17:11:21;3.88;;;3.45;;
67274;SDS011;55463;52.324;5.122;2023-02-28T17:13:47;8.02;;;4.10;;
67274;SDS011;55463;52.324;5.122;2023-02-28T17:16:27;8.25;;;5.13;;
67274;SDS011;55463;52.324;5.122;2023-02-28T17:18:55;6.47;;;4.35;;
67274;SDS011;55463;52.324;5.122;2023-02-28T17:21:23;6.55;;;4.57;;
67274;SDS011;55463;52.324;5.122;2023-02-28T17:23:48;11.32;;;4.55;;
67274;SDS011;55463;52.324;5.122;2023-02-28T17:26:15;7.95;;;4.50;;
67274;SDS011;55463;52.324;5.122;2023-02-28T17:28:45;6.28;;;4.68;;
67274;SDS011;55463;52.324;5.122;2023-02-28T17:31:11;10.77;;;5.35;;
67274;SDS011;55463;52.324;5.122;2023-02-28T17:33:37;7.13;;;5.45;;
67274;SDS011;55463;52.324;5.122;2023-02-28T17:36:02;8.18;;;4.63;;
67274;SDS011;55463;52.324;5.122;2023-02-28T17:38:28;7.65;;;4.70;;
67274;SDS011;55463;52.324;5.122;2023-02-28T17:40:54;6.13;;;4.15;;
67274;SDS011;55463;52.324;5.122;2023-02-28T17:43:25;5.43;;;4.60;;
67274;SDS011;55463;52.324;5.122;2023-02-28T17:45:51;7.55;;;5.10;;
67274;SDS011;55463;52.324;5.122;2023-02-28T17:48:19;8.45;;;4.55;;
67274;SDS011;55463;52.324;5.122;2023-02-28T17:50:45;9.10;;;5.30;;